createdAt,value
2022-10-02T00:03:04.817Z,2.80
2022-10-02T00:05:41.253Z,2.37
2022-10-02T00:08:24.190Z,2.20
2022-10-02T00:11:23.594Z,2.10
2022-10-02T00:13:59.135Z,2.10
2022-10-02T00:17:03.314Z,2.30
2022-10-02T00:19:30.650Z,2.13
2022-10-02T00:22:20.364Z,2.20
2022-10-02T00:24:54.477Z,1.93
2022-10-02T00:27:58.803Z,2.00
2022-10-02T00:30:25.827Z,1.97
2022-10-02T00:33:24.035Z,2.13
2022-10-02T00:36:39.502Z,2.10
2022-10-02T00:39:39.494Z,2.10
2022-10-02T00:42:50.371Z,2.10
2022-10-02T00:45:22.932Z,1.90
2022-10-02T00:48:07.869Z,2.53
2022-10-02T00:51:35.095Z,1.80
2022-10-02T00:54:10.831Z,2.67
2022-10-02T00:57:40.211Z,2.20
2022-10-02T01:00:18.894Z,2.07
2022-10-02T01:03:14.316Z,2.27
2022-10-02T01:05:41.654Z,2.00
2022-10-02T01:08:09.031Z,2.07
2022-10-02T01:10:38.155Z,2.17
2022-10-02T01:13:05.986Z,1.70
2022-10-02T01:15:42.533Z,2.13
2022-10-02T01:18:13.687Z,2.00
2022-10-02T01:20:53.608Z,2.30
2022-10-02T01:23:42.611Z,2.00
2022-10-02T01:26:09.685Z,2.10
2022-10-02T01:28:37.767Z,1.60
2022-10-02T01:31:10.909Z,2.10
2022-10-02T01:33:41.624Z,1.93
2022-10-02T01:36:11.246Z,1.80
2022-10-02T01:38:41.523Z,2.10
2022-10-02T01:41:11.475Z,2.23
2022-10-02T01:44:00.552Z,1.83
2022-10-02T01:46:59.516Z,1.83
2022-10-02T01:49:57.814Z,1.97
2022-10-02T01:52:46.712Z,1.60
2022-10-02T01:55:47.275Z,2.17
2022-10-02T01:58:50.355Z,1.83
2022-10-02T02:01:25.431Z,1.70
2022-10-02T02:04:30.337Z,1.97
2022-10-02T02:07:27.373Z,2.30
2022-10-02T02:10:17.763Z,1.90
2022-10-02T02:13:01.970Z,1.63
2022-10-02T02:15:40.262Z,1.70
2022-10-02T02:18:29.847Z,1.70
2022-10-02T02:21:04.424Z,1.90
2022-10-02T02:23:35.259Z,2.07
2022-10-02T02:26:12.486Z,2.00
2022-10-02T02:28:48.829Z,2.53
2022-10-02T02:31:21.594Z,2.07
2022-10-02T02:33:56.211Z,2.17
2022-10-02T02:36:30.902Z,2.27
2022-10-02T02:39:10.372Z,2.37
2022-10-02T02:42:01.534Z,2.27
2022-10-02T02:44:41.979Z,2.20
2022-10-02T02:47:22.596Z,2.20
2022-10-02T02:49:57.210Z,2.07
2022-10-02T02:52:41.629Z,2.17
2022-10-02T02:55:19.115Z,1.97
2022-10-02T02:58:05.616Z,2.53
2022-10-02T03:00:32.692Z,2.70
2022-10-02T03:03:00.612Z,1.97
2022-10-02T03:05:29.594Z,2.13
2022-10-02T03:08:03.204Z,2.40
2022-10-02T03:11:10.032Z,1.77
2022-10-02T03:14:07.860Z,2.13
2022-10-02T03:16:54.296Z,2.57
2022-10-02T03:19:48.147Z,1.77
2022-10-02T03:22:49.203Z,2.20
2022-10-02T03:25:33.226Z,2.37
2022-10-02T03:28:54.583Z,2.20
2022-10-02T03:31:23.203Z,1.53
2022-10-02T03:33:53.843Z,1.70
2022-10-02T03:36:24.419Z,2.47
2022-10-02T03:39:19.943Z,2.70
2022-10-02T03:41:42.318Z,1.80
2022-10-02T03:44:09.213Z,1.83
2022-10-02T03:46:36.488Z,2.60
2022-10-02T03:49:03.592Z,2.60
2022-10-02T03:51:30.936Z,1.87
2022-10-02T03:53:58.072Z,2.37
2022-10-02T03:56:39.370Z,1.60
2022-10-02T03:59:16.019Z,1.50
2022-10-02T04:01:50.858Z,2.53
2022-10-02T04:04:31.760Z,2.40
2022-10-02T04:07:04.849Z,2.23
2022-10-02T04:10:08.208Z,1.90
2022-10-02T04:12:40.403Z,2.07
2022-10-02T04:15:26.298Z,2.20
2022-10-02T04:18:06.279Z,2.83
2022-10-02T04:20:33.183Z,2.50
2022-10-02T04:23:28.220Z,2.40
2022-10-02T04:26:07.496Z,2.20
2022-10-02T04:28:50.699Z,2.00
2022-10-02T04:31:17.820Z,2.30
2022-10-02T04:33:44.856Z,1.80
2022-10-02T04:36:53.738Z,1.90
2022-10-02T04:39:27.408Z,2.50
2022-10-02T04:42:29.262Z,2.67
2022-10-02T04:45:17.789Z,2.20
2022-10-02T04:48:11.999Z,1.90
2022-10-02T04:51:23.507Z,2.50
2022-10-02T04:54:16.445Z,2.50
2022-10-02T04:57:10.902Z,1.73
2022-10-02T05:00:08.684Z,2.10
2022-10-02T05:03:13.101Z,1.70
2022-10-02T05:06:24.984Z,1.77
2022-10-02T05:09:08.961Z,1.83
2022-10-02T05:11:57.150Z,2.43
2022-10-02T05:14:39.010Z,1.77
2022-10-02T05:18:00.018Z,2.67
2022-10-02T05:21:03.492Z,1.57
2022-10-02T05:24:13.454Z,2.27
2022-10-02T05:27:20.664Z,2.10
2022-10-02T05:30:14.032Z,2.13
2022-10-02T05:33:33.103Z,3.73
2022-10-02T05:36:23.656Z,2.33
2022-10-02T05:39:08.355Z,2.23
2022-10-02T05:41:44.283Z,2.10
2022-10-02T05:44:27.396Z,2.17
2022-10-02T05:47:22.222Z,2.27
2022-10-02T05:49:55.446Z,2.17
2022-10-02T05:53:06.172Z,1.77
2022-10-02T05:55:49.918Z,2.07
2022-10-02T05:58:36.945Z,2.03
2022-10-02T06:01:15.389Z,2.40
2022-10-02T06:03:51.170Z,1.90
2022-10-02T06:06:33.583Z,1.90
2022-10-02T06:09:20.003Z,1.87
2022-10-02T06:12:02.878Z,2.00
2022-10-02T06:14:34.425Z,2.40
2022-10-02T06:17:26.992Z,1.30
2022-10-02T06:20:19.155Z,1.93
2022-10-02T06:23:14.135Z,1.73
2022-10-02T06:25:50.039Z,2.00
2022-10-02T06:28:25.467Z,1.80
2022-10-02T06:31:30.507Z,1.70
2022-10-02T06:33:58.147Z,1.60
2022-10-02T06:36:58.358Z,2.30
2022-10-02T06:39:49.347Z,2.20
2022-10-02T06:42:27.992Z,2.03
2022-10-02T06:45:53.310Z,1.80
2022-10-02T06:48:54.567Z,1.73
2022-10-02T06:51:57.562Z,1.90
2022-10-02T06:54:46.115Z,2.10
2022-10-02T06:57:25.939Z,1.73
2022-10-02T07:00:12.329Z,1.90
2022-10-02T07:02:51.590Z,1.73
2022-10-02T07:05:53.339Z,1.60
2022-10-02T07:08:46.734Z,1.70
2022-10-02T07:12:04.970Z,2.23
2022-10-02T07:15:00.830Z,1.50
2022-10-02T07:18:08.871Z,1.60
2022-10-02T07:21:05.351Z,1.50
2022-10-02T07:24:07.878Z,2.10
2022-10-02T07:26:48.315Z,2.37
2022-10-02T07:29:42.864Z,1.40
2022-10-02T07:32:40.414Z,1.30
2022-10-02T07:35:31.165Z,1.47
2022-10-02T07:38:44.703Z,1.67
2022-10-02T07:41:52.117Z,2.83
2022-10-02T07:44:43.867Z,3.73
2022-10-02T07:47:41.338Z,2.87
2022-10-02T07:50:25.129Z,1.83
2022-10-02T07:53:02.114Z,1.30
2022-10-02T07:55:29.036Z,2.20
2022-10-02T07:58:21.647Z,2.27
2022-10-02T08:01:02.349Z,2.60
2022-10-02T08:04:01.273Z,1.70
2022-10-02T08:06:29.038Z,1.50
2022-10-02T08:09:39.072Z,1.37
2022-10-02T08:12:37.759Z,1.57
2022-10-02T08:15:11.427Z,1.97
2022-10-02T08:17:58.775Z,1.70
2022-10-02T08:20:44.403Z,2.40
2022-10-02T08:23:46.059Z,2.20
2022-10-02T08:26:30.658Z,1.83
2022-10-02T08:29:09.561Z,1.50
2022-10-02T08:31:36.575Z,1.67
2022-10-02T08:34:20.915Z,2.33
2022-10-02T08:36:47.867Z,2.50
2022-10-02T08:39:46.530Z,2.33
2022-10-02T08:42:45.467Z,2.50
2022-10-02T08:46:04.630Z,2.53
2022-10-02T08:48:59.078Z,2.23
2022-10-02T08:51:57.859Z,2.73
2022-10-02T08:55:10.657Z,2.07
2022-10-02T08:58:03.562Z,1.63
2022-10-02T09:01:07.188Z,4.10
2022-10-02T09:04:13.003Z,5.93
2022-10-02T09:07:04.737Z,3.33
2022-10-02T09:09:46.598Z,1.70
2022-10-02T09:12:44.630Z,1.67
2022-10-02T09:15:19.308Z,1.20
2022-10-02T09:18:14.027Z,0.93
2022-10-02T09:20:50.435Z,1.10
2022-10-02T09:23:26.193Z,0.97
2022-10-02T09:26:21.486Z,0.80
2022-10-02T09:29:15.755Z,0.90
2022-10-02T09:32:17.682Z,0.87
2022-10-02T09:35:40.794Z,1.20
2022-10-02T09:38:35.659Z,1.20
2022-10-02T09:41:30.618Z,1.10
2022-10-02T09:44:28.286Z,1.47
2022-10-02T09:47:14.958Z,1.10
2022-10-02T09:50:04.911Z,1.40
2022-10-02T09:52:45.306Z,1.20
2022-10-02T09:55:39.142Z,0.90
2022-10-02T09:58:36.713Z,1.13
2022-10-02T10:02:13.295Z,0.90
2022-10-02T10:05:13.158Z,1.00
2022-10-02T10:07:58.067Z,1.10
2022-10-02T10:10:31.120Z,1.40
2022-10-02T10:13:55.996Z,2.17
2022-10-02T10:16:48.431Z,2.00
2022-10-02T10:19:54.055Z,2.17
2022-10-02T10:23:25.023Z,2.47
2022-10-02T10:26:16.638Z,3.30
2022-10-02T10:29:16.965Z,4.30
2022-10-02T10:32:17.543Z,1.93
2022-10-02T10:34:47.263Z,1.97
2022-10-02T10:38:14.765Z,2.00
2022-10-02T10:41:13.052Z,1.90
2022-10-02T10:44:11.207Z,1.60
2022-10-02T10:46:59.490Z,2.10
2022-10-02T10:49:41.464Z,2.00
2022-10-02T10:52:17.164Z,2.60
2022-10-02T10:55:14.955Z,1.67
2022-10-02T10:58:33.843Z,1.60
2022-10-02T11:01:39.725Z,1.87
2022-10-02T11:04:19.079Z,1.30
2022-10-02T11:07:35.055Z,1.23
2022-10-02T11:10:23.528Z,1.50
2022-10-02T11:13:43.935Z,2.00
2022-10-02T11:16:41.164Z,1.93
2022-10-02T11:19:51.220Z,4.03
2022-10-02T11:22:22.212Z,2.70
2022-10-02T11:24:55.248Z,2.10
2022-10-02T11:28:26.378Z,2.23
2022-10-02T11:31:53.846Z,1.20
2022-10-02T11:34:44.941Z,1.20
2022-10-02T11:37:43.977Z,1.50
2022-10-02T11:40:44.955Z,1.40
2022-10-02T11:43:32.937Z,1.30
2022-10-02T11:46:52.214Z,1.10
2022-10-02T11:50:03.781Z,0.90
2022-10-02T11:52:48.715Z,1.10
2022-10-02T11:55:57.010Z,1.00
2022-10-02T11:58:51.314Z,1.10
2022-10-02T12:01:52.313Z,0.90
2022-10-02T12:05:05.954Z,1.00
2022-10-02T12:07:44.216Z,0.80
2022-10-02T12:10:28.585Z,0.70
2022-10-02T12:13:36.565Z,0.50
2022-10-02T12:16:34.076Z,0.70
2022-10-02T12:20:03.108Z,0.60
2022-10-02T12:23:29.697Z,0.50
2022-10-02T12:26:22.576Z,0.60
2022-10-02T12:29:41.115Z,0.60
2022-10-02T12:32:36.489Z,0.60
2022-10-02T12:35:20.828Z,0.50
2022-10-02T12:38:18.386Z,0.50
2022-10-02T12:41:08.665Z,0.40
2022-10-02T12:44:22.066Z,0.50
2022-10-02T12:47:51.153Z,0.50
2022-10-02T12:50:42.809Z,0.50
2022-10-02T12:53:29.155Z,0.50
2022-10-02T12:56:36.213Z,0.60
2022-10-02T12:59:49.546Z,0.50
2022-10-02T13:03:01.229Z,0.50
2022-10-02T13:05:58.137Z,0.50
2022-10-02T13:08:49.542Z,0.47
2022-10-02T13:11:55.854Z,0.60
2022-10-02T13:14:33.148Z,0.57
2022-10-02T13:17:52.024Z,0.60
2022-10-02T13:20:55.943Z,0.50
2022-10-02T13:24:01.003Z,0.70
2022-10-02T13:27:08.046Z,0.60
2022-10-02T13:30:16.252Z,0.60
2022-10-02T13:33:26.767Z,0.63
2022-10-02T13:36:08.248Z,0.87
2022-10-02T13:39:03.409Z,0.93
2022-10-02T13:41:47.797Z,0.80
2022-10-02T13:44:58.691Z,3.13
2022-10-02T13:47:47.601Z,3.83
2022-10-02T13:50:26.611Z,3.40
2022-10-02T13:53:11.649Z,2.30
2022-10-02T13:56:17.443Z,0.73
2022-10-02T13:59:10.773Z,0.70
2022-10-02T14:01:53.146Z,0.70
2022-10-02T14:04:50.388Z,0.63
2022-10-02T14:07:51.239Z,0.57
2022-10-02T14:10:33.463Z,0.50
2022-10-02T14:13:28.651Z,0.50
2022-10-02T14:16:23.958Z,0.50
2022-10-02T14:19:13.705Z,0.70
2022-10-02T14:22:14.171Z,0.70
2022-10-02T14:25:04.285Z,1.33
2022-10-02T14:28:03.376Z,0.70
2022-10-02T14:31:07.504Z,0.60
2022-10-02T14:33:35.009Z,0.80
2022-10-02T14:36:25.378Z,0.70
2022-10-02T14:39:32.255Z,0.90
2022-10-02T14:42:30.899Z,0.90
2022-10-02T14:45:21.271Z,1.77
2022-10-02T14:48:21.768Z,0.73
2022-10-02T14:51:18.545Z,0.70
2022-10-02T14:54:16.395Z,0.73
2022-10-02T14:56:54.751Z,0.60
2022-10-02T14:59:41.697Z,0.90
2022-10-02T15:02:11.225Z,0.90
2022-10-02T15:05:04.650Z,0.93
2022-10-02T15:07:34.807Z,0.80
2022-10-02T15:10:22.962Z,0.70
2022-10-02T15:13:38.669Z,0.70
2022-10-02T15:16:39.115Z,0.70
2022-10-02T15:19:11.620Z,0.70
2022-10-02T15:22:00.746Z,1.20
2022-10-02T15:24:45.479Z,4.23
2022-10-02T15:27:39.467Z,3.13
2022-10-02T15:30:23.173Z,2.40
2022-10-02T15:33:25.972Z,1.50
2022-10-02T15:36:24.052Z,1.40
2022-10-02T15:39:00.237Z,1.30
2022-10-02T15:41:48.826Z,1.40
2022-10-02T15:45:02.584Z,1.50
2022-10-02T15:47:48.575Z,1.40
2022-10-02T15:50:38.846Z,1.30
2022-10-02T15:53:46.830Z,1.30
2022-10-02T15:57:08.639Z,1.23
2022-10-02T16:00:09.465Z,1.43
2022-10-02T16:02:47.420Z,1.80
2022-10-02T16:05:29.421Z,2.60
2022-10-02T16:08:46.032Z,4.10
2022-10-02T16:11:27.939Z,1.83
2022-10-02T16:14:02.045Z,2.20
2022-10-02T16:17:29.978Z,1.70
2022-10-02T16:20:22.665Z,3.00
2022-10-02T16:23:25.163Z,2.37
2022-10-02T16:26:13.897Z,1.90
2022-10-02T16:29:26.553Z,5.33
2022-10-02T16:32:19.365Z,3.63
2022-10-02T16:35:44.067Z,3.87
2022-10-02T16:38:50.452Z,4.57
2022-10-02T16:41:40.136Z,4.47
2022-10-02T16:44:23.504Z,2.50
2022-10-02T16:47:27.407Z,2.40
2022-10-02T16:50:33.335Z,2.63
2022-10-02T16:53:10.503Z,2.07
2022-10-02T16:55:45.350Z,2.10
2022-10-02T16:58:29.738Z,2.23
2022-10-02T17:01:02.267Z,2.57
2022-10-02T17:03:44.495Z,2.57
2022-10-02T17:06:32.422Z,3.50
2022-10-02T17:09:19.147Z,2.40
2022-10-02T17:11:51.745Z,1.80
2022-10-02T17:14:31.111Z,1.93
2022-10-02T17:18:08.755Z,3.63
2022-10-02T17:20:53.593Z,3.57
2022-10-02T17:23:35.666Z,2.37
2022-10-02T17:26:28.406Z,2.47
2022-10-02T17:29:07.320Z,2.03
2022-10-02T17:31:56.001Z,2.10
2022-10-02T17:34:31.691Z,2.77
2022-10-02T17:37:13.919Z,2.77
2022-10-02T17:40:01.512Z,2.93
2022-10-02T17:43:13.391Z,2.97
2022-10-02T17:46:23.894Z,2.87
2022-10-02T17:49:17.590Z,2.80
2022-10-02T17:52:43.943Z,2.43
2022-10-02T17:56:16.118Z,3.70
2022-10-02T17:58:55.890Z,6.00
2022-10-02T18:01:31.551Z,3.83
2022-10-02T18:04:19.695Z,4.03
2022-10-02T18:07:30.524Z,4.17
2022-10-02T18:10:32.208Z,6.53
2022-10-02T18:13:31.824Z,4.33
2022-10-02T18:16:23.319Z,16.10
2022-10-02T18:19:24.970Z,7.80
2022-10-02T18:22:32.138Z,3.97
2022-10-02T18:25:27.473Z,4.73
2022-10-02T18:28:11.379Z,4.63
2022-10-02T18:31:55.433Z,4.13
2022-10-02T18:35:07.442Z,3.17
2022-10-02T18:37:57.519Z,4.70
2022-10-02T18:40:30.427Z,2.53
2022-10-02T18:43:38.848Z,2.20
2022-10-02T18:46:49.403Z,2.40
2022-10-02T18:50:07.662Z,3.93
2022-10-02T18:52:55.582Z,4.70
2022-10-02T18:56:02.823Z,4.37
2022-10-02T18:58:41.829Z,4.53
2022-10-02T19:01:30.880Z,2.90
2022-10-02T19:04:28.571Z,2.17
2022-10-02T19:07:11.007Z,1.87
2022-10-02T19:09:38.072Z,1.97
2022-10-02T19:12:25.360Z,2.23
2022-10-02T19:14:55.829Z,2.10
2022-10-02T19:17:25.976Z,2.30
2022-10-02T19:19:54.227Z,2.07
2022-10-02T19:22:38.422Z,2.63
2022-10-02T19:25:16.491Z,2.90
2022-10-02T19:27:50.257Z,3.70
2022-10-02T19:30:30.460Z,4.00
2022-10-02T19:33:02.450Z,4.10
2022-10-02T19:35:33.562Z,4.50
2022-10-02T19:38:27.890Z,4.20
2022-10-02T19:40:57.248Z,5.30
2022-10-02T19:43:31.108Z,4.50
2022-10-02T19:46:04.052Z,3.77
2022-10-02T19:48:32.665Z,4.37
2022-10-02T19:51:19.109Z,5.00
2022-10-02T19:53:55.244Z,6.63
2022-10-02T19:56:41.141Z,6.03
2022-10-02T19:59:25.472Z,5.97
2022-10-02T20:01:55.178Z,6.70
2022-10-02T20:04:28.955Z,6.47
2022-10-02T20:07:00.629Z,4.90
2022-10-02T20:09:36.622Z,5.30
2022-10-02T20:12:47.632Z,3.40
2022-10-02T20:15:15.890Z,5.10
2022-10-02T20:17:42.969Z,5.70
2022-10-02T20:20:16.705Z,4.30
2022-10-02T20:23:01.589Z,4.73
2022-10-02T20:25:42.097Z,4.87
2022-10-02T20:28:23.102Z,5.00
2022-10-02T20:31:04.682Z,5.83
2022-10-02T20:33:37.360Z,5.70
2022-10-02T20:36:29.186Z,5.83
2022-10-02T20:39:11.786Z,5.07
2022-10-02T20:42:09.872Z,4.97
2022-10-02T20:44:37.564Z,4.10
2022-10-02T20:47:35.384Z,2.60
2022-10-02T20:50:31.173Z,10.10
2022-10-02T20:53:53.282Z,7.37
2022-10-02T20:56:41.869Z,6.07
2022-10-02T20:59:48.000Z,7.53
2022-10-02T21:02:29.802Z,8.53
2022-10-02T21:05:30.467Z,10.03
2022-10-02T21:08:27.659Z,8.50
2022-10-02T21:11:15.660Z,7.00
2022-10-02T21:14:22.950Z,8.17
2022-10-02T21:17:41.875Z,8.27
2022-10-02T21:20:27.751Z,6.30
2022-10-02T21:23:32.155Z,5.53
2022-10-02T21:26:30.126Z,4.90
2022-10-02T21:29:27.879Z,4.50
2022-10-02T21:32:22.950Z,7.40
2022-10-02T21:35:10.160Z,6.47
2022-10-02T21:37:56.249Z,7.40
2022-10-02T21:40:57.360Z,9.70
2022-10-02T21:43:56.050Z,8.87
2022-10-02T21:46:59.089Z,10.17
2022-10-02T21:50:05.975Z,8.70
2022-10-02T21:53:18.958Z,4.73
2022-10-02T21:56:00.102Z,3.97
2022-10-02T21:58:51.775Z,3.53
2022-10-02T22:01:36.351Z,2.80
2022-10-02T22:04:28.297Z,4.30
2022-10-02T22:07:22.411Z,4.77
2022-10-02T22:10:30.215Z,4.50
2022-10-02T22:13:21.580Z,3.07
2022-10-02T22:16:09.804Z,3.50
2022-10-02T22:18:50.854Z,3.60
2022-10-02T22:21:45.404Z,3.50
2022-10-02T22:24:53.810Z,2.80
2022-10-02T22:27:29.499Z,3.27
2022-10-02T22:29:57.414Z,2.77
2022-10-02T22:33:01.683Z,3.00
2022-10-02T22:36:04.973Z,3.60
2022-10-02T22:38:52.993Z,3.50
2022-10-02T22:41:33.970Z,3.20
2022-10-02T22:44:09.368Z,3.37
2022-10-02T22:46:50.382Z,3.70
2022-10-02T22:49:34.986Z,3.10
2022-10-02T22:52:42.372Z,2.70
2022-10-02T22:55:34.508Z,3.03
2022-10-02T22:58:33.384Z,1.60
2022-10-02T23:01:17.023Z,1.80
2022-10-02T23:04:26.031Z,2.00
2022-10-02T23:07:02.227Z,2.10
2022-10-02T23:09:59.496Z,2.63
2022-10-02T23:12:40.595Z,2.57
2022-10-02T23:15:42.548Z,2.53
2022-10-02T23:18:50.484Z,2.30
2022-10-02T23:21:45.638Z,2.57
2022-10-02T23:24:13.079Z,3.60
2022-10-02T23:26:57.049Z,3.27
2022-10-02T23:30:10.327Z,2.60
2022-10-02T23:32:55.715Z,2.70
2022-10-02T23:35:49.223Z,2.63
2022-10-02T23:39:05.235Z,2.00
2022-10-02T23:42:02.078Z,2.33
2022-10-02T23:44:43.117Z,2.60
2022-10-02T23:47:46.895Z,2.80
2022-10-02T23:51:09.627Z,2.67
2022-10-02T23:54:57.608Z,2.17
2022-10-02T23:58:04.683Z,2.10
